Time;durP1;ratioP1;P1;durP2;ratioP2;P2;SDS_P1;SDS_P2;PMS_P1;PMS_P2;Temp;Humidity;BMP_temperature;BMP_pressure;BME280_temperature;BME280_humidity;BME280_pressure;Samples;Min_cycle;Max_cycle;Signal;HPM_P1;HPM_P2
2021/06/11 00:01:02;;;;;;;5.38;4.88;;;23.70;66.40;;;;;;5184140;28;20600;-50
2021/06/11 00:03:36;;;;;;;7.53;4.55;;;23.70;66.40;;;;;;5187522;28;20054;-53
2021/06/11 00:06:08;;;;;;;7.07;5.13;;;23.70;66.40;;;;;;5177622;28;20528;-52
2021/06/11 00:08:41;;;;;;;5.32;4.53;;;23.70;66.40;;;;;;5179068;28;20050;-51
2021/06/11 00:11:14;;;;;;;7.85;4.40;;;23.70;66.50;;;;;;5184211;28;20116;-54
2021/06/11 00:13:47;;;;;;;5.53;4.72;;;23.70;66.50;;;;;;5179932;28;20991;-48
2021/06/11 00:16:20;;;;;;;5.18;4.68;;;23.70;66.50;;;;;;5177591;28;20061;-56
2021/06/11 00:18:52;;;;;;;5.53;4.55;;;23.70;66.50;;;;;;5184835;28;20077;-49
2021/06/11 00:21:25;;;;;;;6.15;4.30;;;23.70;66.50;;;;;;5200022;28;20072;-51
2021/06/11 00:23:57;;;;;;;4.88;4.38;;;23.70;66.50;;;;;;5184503;28;20061;-50
2021/06/11 00:26:30;;;;;;;6.57;3.67;;;23.70;66.50;;;;;;5193042;28;20054;-49
2021/06/11 00:29:03;;;;;;;5.60;4.18;;;23.70;66.50;;;;;;5188344;28;20061;-48
2021/06/11 00:31:35;;;;;;;5.43;4.17;;;23.70;66.40;;;;;;5190321;28;20054;-49
2021/06/11 00:34:08;;;;;;;5.13;4.47;;;23.70;66.40;;;;;;5192936;28;20053;-54
2021/06/11 00:36:41;;;;;;;4.25;3.85;;;23.70;66.40;;;;;;5189757;28;20053;-51
2021/06/11 00:39:13;;;;;;;5.38;4.15;;;23.70;66.30;;;;;;5186736;28;20068;-52
2021/06/11 00:41:46;;;;;;;4.28;3.88;;;23.60;66.20;;;;;;5183631;28;20064;-48
2021/06/11 00:44:19;;;;;;;4.65;4.18;;;23.70;66.30;;;;;;5182922;28;20060;-52
2021/06/11 00:46:51;;;;;;;4.78;4.03;;;23.60;66.30;;;;;;5186082;28;20434;-47
2021/06/11 00:49:24;;;;;;;5.65;4.30;;;23.70;66.30;;;;;;5184160;28;20083;-50
2021/06/11 00:51:56;;;;;;;5.00;4.50;;;23.60;66.30;;;;;;5184115;28;20413;-50
2021/06/11 00:54:29;;;;;;;4.95;4.40;;;23.60;66.30;;;;;;5186545;28;20327;-49
2021/06/11 00:57:02;;;;;;;5.97;4.03;;;23.70;66.40;;;;;;5181927;28;20053;-48
2021/06/11 00:59:36;;;;;;;3.80;3.40;;;23.60;66.40;;;;;;5181640;28;20068;-52
2021/06/11 01:02:10;;;;;;;6.70;4.53;;;23.60;66.40;;;;;;5180141;28;20058;-50
2021/06/11 01:04:43;;;;;;;5.43;4.22;;;23.60;66.30;;;;;;5190656;28;20053;-47
2021/06/11 01:07:17;;;;;;;4.35;3.95;;;23.60;66.30;;;;;;5188987;28;20053;-50
2021/06/11 01:09:51;;;;;;;5.22;3.80;;;23.60;66.20;;;;;;5183686;28;20972;-49
2021/06/11 01:12:24;;;;;;;4.68;4.00;;;23.60;66.20;;;;;;5182602;28;20045;-50
2021/06/11 01:14:57;;;;;;;5.07;4.10;;;23.60;66.10;;;;;;5191755;28;20333;-51
2021/06/11 01:17:34;;;;;;;5.68;3.67;;;23.60;66.00;;;;;;5189803;28;20242;-48
2021/06/11 01:20:10;;;;;;;3.45;3.15;;;23.60;66.00;;;;;;5195326;28;20054;-57
2021/06/11 01:23:28;;;;;;;7.28;3.33;;;23.60;66.10;;;;;;5184893;28;20061;-53
2021/06/11 01:26:21;;;;;;;5.80;3.58;;;23.60;65.90;;;;;;5182003;28;20515;-54
2021/06/11 01:29:00;;;;;;;5.28;3.58;;;23.50;65.90;;;;;;5186144;28;20077;-47
2021/06/11 01:31:36;;;;;;;3.55;3.25;;;23.50;66.00;;;;;;5202244;28;20050;-50
2021/06/11 01:34:15;;;;;;;3.47;3.17;;;23.50;66.00;;;;;;5186836;28;20053;-49
2021/06/11 01:36:52;;;;;;;5.03;3.60;;;23.50;65.90;;;;;;5198916;28;20053;-55
2021/06/11 01:39:26;;;;;;;3.80;3.50;;;23.60;66.00;;;;;;5182098;28;20969;-53
2021/06/11 01:42:00;;;;;;;5.72;3.92;;;23.60;65.90;;;;;;5182665;28;20427;-52
2021/06/11 01:44:37;;;;;;;6.72;3.83;;;23.50;65.80;;;;;;5181615;28;20423;-49
2021/06/11 01:47:12;;;;;;;4.28;3.47;;;23.50;65.80;;;;;;5197573;28;20053;-56
2021/06/11 01:49:46;;;;;;;4.75;3.70;;;23.50;65.90;;;;;;5189116;28;20049;-48
2021/06/11 01:52:19;;;;;;;;;;;23.50;66.00;;;;;;5161772;28;20514;-52
2021/06/11 01:54:52;;;;;;;4.38;3.70;;;23.40;65.90;;;;;;5178729;28;19921;-49
2021/06/11 01:57:26;;;;;;;4.82;3.63;;;23.50;66.10;;;;;;5184698;28;20046;-50
2021/06/11 02:00:00;;;;;;;3.97;3.60;;;23.50;66.10;;;;;;5181465;28;20045;-48
2021/06/11 02:02:36;;;;;;;4.10;3.58;;;23.50;66.20;;;;;;5182835;28;20060;-51
2021/06/11 02:05:10;;;;;;;4.38;3.97;;;23.50;66.20;;;;;;5179765;28;20049;-54
2021/06/11 02:07:47;;;;;;;6.75;3.72;;;23.50;66.20;;;;;;5181272;28;20046;-49
2021/06/11 02:10:22;;;;;;;4.72;3.78;;;23.50;66.20;;;;;;5183911;28;20064;-50
2021/06/11 02:12:55;;;;;;;5.38;4.10;;;23.50;66.20;;;;;;5180181;28;20053;-48
2021/06/11 02:15:29;;;;;;;4.75;3.90;;;23.50;66.20;;;;;;5189514;28;20053;-48
2021/06/11 02:18:02;;;;;;;4.00;3.55;;;23.50;66.20;;;;;;5181463;28;20070;-55
2021/06/11 02:20:35;;;;;;;6.97;3.78;;;23.50;66.20;;;;;;5176201;28;20049;-48
2021/06/11 02:23:08;;;;;;;3.80;3.42;;;23.50;66.20;;;;;;5185498;28;20061;-55
2021/06/11 02:25:40;;;;;;;3.92;3.53;;;23.50;66.30;;;;;;5186909;28;20050;-47
2021/06/11 02:28:16;;;;;;;4.95;3.50;;;23.50;66.20;;;;;;5178059;28;20044;-48
2021/06/11 02:30:49;;;;;;;3.60;3.30;;;23.50;66.20;;;;;;5182374;28;20049;-49
2021/06/11 02:33:21;;;;;;;5.10;3.87;;;23.40;66.20;;;;;;5176624;28;20061;-52
2021/06/11 02:35:55;;;;;;;4.47;3.27;;;23.50;66.20;;;;;;5175988;28;20307;-51
2021/06/11 02:38:28;;;;;;;4.55;3.28;;;23.40;66.20;;;;;;5171218;28;20316;-54
2021/06/11 02:41:01;;;;;;;4.03;3.45;;;23.50;66.20;;;;;;5180905;28;20053;-56
2021/06/11 02:43:39;;;;;;;5.63;3.47;;;23.50;66.20;;;;;;5172397;28;20058;-50
2021/06/11 02:46:26;;;;;;;4.28;3.60;;;23.40;66.10;;;;;;5191369;28;20049;-48
2021/06/11 02:49:05;;;;;;;5.47;3.67;;;23.40;66.10;;;;;;5184400;28;20049;-50
2021/06/11 02:51:45;;;;;;;4.45;3.78;;;23.40;66.10;;;;;;5195756;28;20080;-54
2021/06/11 02:54:25;;;;;;;4.68;3.40;;;23.40;66.10;;;;;;5175841;28;20061;-49
2021/06/11 02:57:15;;;;;;;4.18;3.50;;;23.40;66.10;;;;;;5181442;28;20076;-50
2021/06/11 02:59:58;;;;;;;4.25;3.33;;;23.40;66.20;;;;;;5183524;28;20068;-54
2021/06/11 03:02:35;;;;;;;4.00;3.58;;;23.40;66.80;;;;;;5180536;28;20544;-54
2021/06/11 03:05:10;;;;;;;3.88;3.47;;;23.40;66.20;;;;;;5182666;28;20397;-55
2021/06/11 03:07:47;;;;;;;4.53;3.33;;;23.40;66.20;;;;;;5195703;28;20536;-54
2021/06/11 03:10:28;;;;;;;5.90;3.85;;;23.40;66.20;;;;;;5180625;28;20053;-50
2021/06/11 03:13:02;;;;;;;5.50;3.55;;;23.40;66.20;;;;;;5180552;28;20110;-51
2021/06/11 03:15:36;;;;;;;3.80;3.40;;;23.40;66.30;;;;;;5181122;28;20423;-52
2021/06/11 03:18:35;;;;;;;8.15;3.78;;;23.40;66.30;;;;;;5181442;28;20061;-49
2021/06/11 03:21:21;;;;;;;5.53;3.40;;;23.40;66.20;;;;;;5187944;28;20188;-49
2021/06/11 03:24:03;;;;;;;5.20;3.72;;;23.40;66.20;;;;;;5186206;28;20510;-54
2021/06/11 03:27:11;;;;;;;6.60;4.18;;;23.40;66.20;;;;;;5184528;28;20046;-50
2021/06/11 03:29:49;;;;;;;4.68;3.53;;;23.30;66.20;;;;;;5143133;28;20050;-51
2021/06/11 03:32:26;;;;;;;7.13;3.33;;;23.30;66.20;;;;;;5182016;28;20065;-57
2021/06/11 03:35:06;;;;;;;3.47;3.17;;;23.30;66.30;;;;;;5180447;28;20066;-52
2021/06/11 03:37:39;;;;;;;5.05;3.13;;;23.30;66.20;;;;;;5194729;28;20526;-50
2021/06/11 03:40:15;;;;;;;6.80;3.85;;;23.30;66.30;;;;;;5191119;28;20080;-50
2021/06/11 03:42:48;;;;;;;4.57;3.22;;;23.30;66.20;;;;;;5181698;28;20065;-51
2021/06/11 03:45:23;;;;;;;4.93;3.70;;;23.30;66.20;;;;;;5195778;28;20049;-53
2021/06/11 03:48:00;;;;;;;3.70;3.35;;;23.30;66.20;;;;;;5180409;28;20060;-54
2021/06/11 03:50:34;;;;;;;6.68;3.53;;;23.30;66.30;;;;;;5175619;28;20048;-50
2021/06/11 03:53:09;;;;;;;5.53;3.17;;;23.30;66.90;;;;;;5184090;28;20045;-50
2021/06/11 03:55:45;;;;;;;4.13;3.30;;;23.30;66.20;;;;;;5190235;28;20054;-52
2021/06/11 03:58:35;;;;;;;6.32;3.60;;;23.30;66.20;;;;;;5182183;28;20057;-50
2021/06/11 04:01:15;;;;;;;5.70;3.30;;;23.30;66.20;;;;;;5193033;28;20064;-50
2021/06/11 04:03:48;;;;;;;3.72;3.42;;;23.30;66.30;;;;;;5181437;28;20065;-50
2021/06/11 04:06:33;;;;;;;4.70;3.28;;;23.30;66.30;;;;;;5185672;28;20510;-55
2021/06/11 04:09:15;;;;;;;3.30;3.00;;;23.30;66.20;;;;;;5178680;28;20045;-50
2021/06/11 04:12:02;;;;;;;4.00;3.00;;;23.30;66.30;;;;;;5194336;28;20057;-50
2021/06/11 04:14:44;;;;;;;3.53;3.10;;;23.30;66.30;;;;;;5183400;28;20056;-54
2021/06/11 04:17:28;;;;;;;3.40;3.10;;;23.30;66.40;;;;;;5182472;28;20056;-53
2021/06/11 04:20:02;;;;;;;3.75;2.85;;;23.30;66.30;;;;;;5175644;28;20046;-53
2021/06/11 04:22:36;;;;;;;5.65;3.22;;;23.30;66.40;;;;;;5184425;28;20441;-52
2021/06/11 04:25:12;;;;;;;5.30;3.17;;;23.30;66.30;;;;;;5171771;28;20054;-48
2021/06/11 04:27:49;;;;;;;4.45;3.15;;;23.30;66.30;;;;;;5185482;28;20347;-48
2021/06/11 04:30:23;;;;;;;4.38;3.20;;;23.30;66.20;;;;;;5163723;28;20058;-57
2021/06/11 04:32:56;;;;;;;3.42;2.88;;;23.30;66.30;;;;;;5191599;28;20418;-47
2021/06/11 04:35:35;;;;;;;3.70;3.13;;;23.30;66.20;;;;;;5177961;28;20804;-53
2021/06/11 04:38:08;;;;;;;6.28;3.67;;;23.40;66.30;;;;;;5189323;28;20053;-52
2021/06/11 04:40:40;;;;;;;3.47;2.97;;;23.30;66.30;;;;;;5173705;28;20133;-51
2021/06/11 04:43:13;;;;;;;4.10;3.10;;;23.40;66.30;;;;;;5179457;28;20057;-51
2021/06/11 04:45:46;;;;;;;3.95;3.10;;;23.40;66.30;;;;;;5175668;28;20045;-53
2021/06/11 04:48:18;;;;;;;4.85;3.05;;;23.30;66.30;;;;;;5181620;28;20054;-52
2021/06/11 04:50:51;;;;;;;3.40;3.10;;;23.40;66.40;;;;;;5182138;28;20060;-50
2021/06/11 04:53:23;;;;;;;3.45;2.95;;;23.40;66.50;;;;;;5172365;28;20322;-51
2021/06/11 04:55:57;;;;;;;5.38;2.97;;;23.40;66.50;;;;;;5172879;28;20282;-54
2021/06/11 04:58:30;;;;;;;5.10;3.00;;;23.40;66.60;;;;;;5170313;28;20053;-50
2021/06/11 05:01:05;;;;;;;3.10;2.80;;;23.40;66.60;;;;;;5173115;28;20062;-53
2021/06/11 05:03:37;;;;;;;8.95;3.83;;;23.40;66.60;;;;;;5166877;28;20076;-50
2021/06/11 05:06:10;;;;;;;8.65;3.70;;;23.40;66.60;;;;;;5162699;28;20045;-50
2021/06/11 05:08:43;;;;;;;22.52;4.75;;;23.40;66.60;;;;;;5168532;28;20050;-51
2021/06/11 05:11:16;;;;;;;16.17;4.93;;;23.40;66.70;;;;;;5178370;28;20245;-51
2021/06/11 05:13:48;;;;;;;13.77;4.53;;;23.40;66.60;;;;;;5174811;28;20514;-50
2021/06/11 05:16:21;;;;;;;22.65;5.40;;;23.40;66.50;;;;;;5180704;28;20355;-52
2021/06/11 05:18:54;;;;;;;10.93;3.93;;;23.30;66.50;;;;;;5207072;28;20053;-48
2021/06/11 05:21:26;;;;;;;9.90;3.60;;;23.30;66.50;;;;;;5178882;28;20679;-51
2021/06/11 05:23:59;;;;;;;7.55;3.55;;;23.30;66.80;;;;;;5182921;28;20072;-49
2021/06/11 05:26:31;;;;;;;14.80;3.83;;;23.30;66.60;;;;;;5173805;28;20048;-50
2021/06/11 05:29:04;;;;;;;15.82;4.22;;;23.30;66.60;;;;;;5162963;28;20493;-51
2021/06/11 05:31:37;;;;;;;5.57;3.83;;;23.30;66.70;;;;;;5175218;28;20407;-51
2021/06/11 05:34:10;;;;;;;7.47;3.60;;;23.30;66.70;;;;;;5185065;28;20058;-53
2021/06/11 05:36:43;;;;;;;11.35;3.38;;;23.30;66.70;;;;;;5182062;28;20847;-54
2021/06/11 05:39:15;;;;;;;7.55;3.90;;;23.30;66.60;;;;;;5184580;28;20513;-49
2021/06/11 05:41:48;;;;;;;7.55;4.18;;;23.40;66.60;;;;;;5182741;28;20049;-50
2021/06/11 05:44:21;;;;;;;6.63;3.60;;;23.40;66.60;;;;;;5187890;28;20391;-51
2021/06/11 05:46:53;;;;;;;7.75;4.65;;;23.40;66.60;;;;;;5183564;28;20686;-53
2021/06/11 05:49:26;;;;;;;5.70;4.00;;;23.40;66.50;;;;;;5189365;28;20053;-53
2021/06/11 05:51:59;;;;;;;12.35;4.22;;;23.40;66.40;;;;;;5179187;28;20418;-49
2021/06/11 05:54:31;;;;;;;6.95;4.60;;;23.40;66.30;;;;;;5181641;28;20049;-52
2021/06/11 05:57:04;;;;;;;7.55;5.05;;;23.40;66.30;;;;;;5179010;28;20060;-53
2021/06/11 05:59:36;;;;;;;9.80;5.20;;;23.30;66.40;;;;;;5181756;28;20056;-52
2021/06/11 06:02:09;;;;;;;8.05;4.97;;;23.20;66.70;;;;;;5182448;28;20045;-50
2021/06/11 06:04:41;;;;;;;6.00;5.30;;;23.10;66.90;;;;;;5178685;28;20060;-49
2021/06/11 06:07:14;;;;;;;6.78;5.45;;;23.00;67.30;;;;;;5179220;28;20473;-50
2021/06/11 06:09:47;;;;;;;9.57;5.80;;;22.90;67.80;;;;;;5155431;28;20525;-52
2021/06/11 06:12:19;;;;;;;10.65;5.72;;;22.80;68.20;;;;;;5181965;28;20320;-54
2021/06/11 06:14:52;;;;;;;6.67;5.90;;;22.70;68.50;;;;;;5174254;28;20064;-49
2021/06/11 06:17:31;;;;;;;10.43;5.60;;;22.60;68.90;;;;;;5174027;28;20312;-53
2021/06/11 06:20:06;;;;;;;10.50;5.97;;;22.60;69.70;;;;;;5180329;28;20503;-53
2021/06/11 06:22:45;;;;;;;6.20;5.03;;;22.50;70.00;;;;;;5180731;28;20305;-54
2021/06/11 06:25:18;;;;;;;8.63;5.25;;;22.50;70.30;;;;;;5170981;28;20064;-50
2021/06/11 06:27:51;;;;;;;13.85;5.97;;;22.40;70.70;;;;;;5180305;28;20088;-53
2021/06/11 06:30:24;;;;;;;7.28;6.20;;;22.40;70.80;;;;;;5179620;28;20506;-50
2021/06/11 06:32:57;;;;;;;10.02;5.88;;;22.40;71.00;;;;;;5178428;28;20060;-50
2021/06/11 06:35:29;;;;;;;13.40;6.00;;;22.30;71.50;;;;;;5181872;28;20049;-54
2021/06/11 06:38:01;;;;;;;8.00;5.60;;;22.30;71.60;;;;;;5184180;28;20057;-51
2021/06/11 06:40:35;;;;;;;8.98;6.40;;;22.30;71.90;;;;;;5183974;28;20064;-52
2021/06/11 06:43:08;;;;;;;10.18;7.05;;;22.30;71.30;;;;;;5184695;28;20425;-49
2021/06/11 06:45:40;;;;;;;7.75;6.90;;;22.20;71.40;;;;;;5179175;28;20064;-51
2021/06/11 06:48:13;;;;;;;8.90;6.90;;;22.20;71.90;;;;;;5183731;28;20060;-52
2021/06/11 06:50:46;;;;;;;9.95;6.40;;;22.20;71.70;;;;;;5178834;28;20056;-54
2021/06/11 06:53:18;;;;;;;11.30;6.82;;;22.20;71.90;;;;;;5185596;28;20589;-48
2021/06/11 06:55:51;;;;;;;8.25;6.57;;;22.20;72.10;;;;;;5176027;28;20502;-52
2021/06/11 06:58:23;;;;;;;15.50;7.43;;;22.20;71.70;;;;;;5172959;28;20053;-54
2021/06/11 07:00:56;;;;;;;8.70;7.03;;;22.20;71.80;;;;;;5178743;28;20050;-53
2021/06/11 07:03:29;;;;;;;12.93;8.00;;;22.20;71.80;;;;;;5179765;28;20041;-52
2021/06/11 07:06:02;;;;;;;11.13;7.00;;;22.20;72.00;;;;;;5184564;28;20313;-52
2021/06/11 07:08:34;;;;;;;10.05;7.38;;;22.20;71.40;;;;;;5188799;28;20045;-51
2021/06/11 07:11:07;;;;;;;9.95;7.05;;;22.20;70.20;;;;;;5183800;28;20049;-49
2021/06/11 07:13:39;;;;;;;9.45;7.40;;;22.20;70.40;;;;;;5183690;28;20060;-49
2021/06/11 07:16:12;;;;;;;7.60;6.38;;;22.20;70.80;;;;;;5174700;28;20060;-53
2021/06/11 07:18:45;;;;;;;12.00;8.10;;;22.20;71.20;;;;;;5173504;28;20054;-56
2021/06/11 07:21:17;;;;;;;7.68;6.15;;;22.20;71.20;;;;;;5180010;28;20057;-50
2021/06/11 07:23:50;;;;;;;7.38;6.07;;;22.20;70.90;;;;;;5180087;28;20521;-50
2021/06/11 07:26:22;;;;;;;7.82;6.25;;;22.20;70.60;;;;;;5176010;28;20041;-52
2021/06/11 07:28:55;;;;;;;7.38;6.20;;;22.30;70.50;;;;;;5180071;28;20061;-51
2021/06/11 07:31:27;;;;;;;8.32;6.30;;;22.30;70.20;;;;;;5183015;28;20053;-51
2021/06/11 07:34:00;;;;;;;7.27;6.10;;;22.30;69.80;;;;;;5182333;28;20061;-54
2021/06/11 07:36:34;;;;;;;;;;;22.40;69.60;;;;;;5197028;28;20065;-57
2021/06/11 07:39:06;;;;;;;22.45;6.50;;;22.30;69.00;;;;;;5169953;28;19936;-58
2021/06/11 07:41:38;;;;;;;11.63;6.60;;;22.40;69.60;;;;;;5172262;28;20057;-63
2021/06/11 07:44:11;;;;;;;18.40;5.90;;;22.40;69.30;;;;;;5177090;28;20072;-61
2021/06/11 07:46:43;;;;;;;12.30;5.60;;;22.50;69.90;;;;;;5182468;28;20049;-61
2021/06/11 07:49:16;;;;;;;11.55;6.07;;;22.50;69.10;;;;;;5153975;28;20057;-59
2021/06/11 07:51:48;;;;;;;9.48;6.28;;;22.60;69.00;;;;;;5183545;28;20054;-50
2021/06/11 07:54:22;;;;;;;11.50;5.30;;;22.60;68.60;;;;;;5175634;28;20045;-53
2021/06/11 07:56:54;;;;;;;5.67;4.80;;;22.60;68.90;;;;;;5177095;28;20072;-49
2021/06/11 07:59:27;;;;;;;10.93;5.28;;;22.70;68.80;;;;;;5186544;28;20057;-56
2021/06/11 08:01:59;;;;;;;8.00;5.72;;;22.80;68.50;;;;;;5184858;28;20060;-48
2021/06/11 08:04:32;;;;;;;8.13;5.50;;;22.80;68.30;;;;;;5181635;28;20045;-53
2021/06/11 08:07:04;;;;;;;8.20;5.97;;;22.80;68.20;;;;;;5189091;28;20041;-53
2021/06/11 08:09:39;;;;;;;6.90;5.25;;;22.90;68.20;;;;;;5185361;28;20045;-50
2021/06/11 08:12:13;;;;;;;5.72;5.13;;;22.90;68.20;;;;;;5183645;28;20057;-53
2021/06/11 08:14:47;;;;;;;7.55;5.57;;;22.90;68.10;;;;;;5178506;28;20049;-48
2021/06/11 08:17:19;;;;;;;9.40;5.55;;;22.90;68.10;;;;;;5187310;28;20506;-51
2021/06/11 08:19:52;;;;;;;8.00;5.90;;;22.90;68.10;;;;;;5185261;28;20061;-56
2021/06/11 08:22:25;;;;;;;8.65;5.72;;;22.90;67.90;;;;;;5199438;28;20501;-52
2021/06/11 08:24:57;;;;;;;6.80;5.25;;;22.90;67.90;;;;;;5189539;28;20053;-52
2021/06/11 08:27:30;;;;;;;5.72;5.13;;;23.00;67.90;;;;;;5186683;28;20556;-54
2021/06/11 08:30:05;;;;;;;8.97;7.10;;;22.90;67.60;;;;;;5183780;28;20637;-56
2021/06/11 08:32:52;;;;;;;12.57;7.35;;;23.00;67.70;;;;;;5180536;28;20531;-50
2021/06/11 08:35:27;;;;;;;9.25;6.63;;;23.00;67.90;;;;;;5184110;28;20072;-53
2021/06/11 08:38:00;;;;;;;8.82;6.82;;;23.00;67.80;;;;;;5183166;28;20064;-51
2021/06/11 08:40:33;;;;;;;9.90;6.22;;;23.00;67.90;;;;;;5183479;28;20128;-53
2021/06/11 08:43:06;;;;;;;11.15;6.60;;;23.00;68.10;;;;;;5187191;28;20068;-48
2021/06/11 08:45:39;;;;;;;12.50;7.00;;;23.00;68.10;;;;;;5190953;28;20062;-51
2021/06/11 08:48:12;;;;;;;13.65;6.47;;;23.00;68.10;;;;;;5188095;28;20058;-53
2021/06/11 08:50:44;;;;;;;12.13;6.30;;;23.00;68.10;;;;;;5181452;28;21416;-56
2021/06/11 08:53:18;;;;;;;11.40;6.70;;;23.00;68.10;;;;;;5190333;28;20058;-54
2021/06/11 08:55:51;;;;;;;9.35;6.22;;;23.10;68.10;;;;;;5191713;28;20052;-51
2021/06/11 08:58:23;;;;;;;8.75;6.50;;;23.10;68.10;;;;;;5197940;28;20506;-55
2021/06/11 09:00:56;;;;;;;15.23;6.25;;;23.10;68.10;;;;;;5192237;28;20069;-49
2021/06/11 09:03:36;;;;;;;16.02;7.15;;;23.10;68.10;;;;;;5189588;28;20505;-48
2021/06/11 09:06:13;;;;;;;9.88;6.25;;;23.10;68.10;;;;;;5183373;28;20050;-49
2021/06/11 09:08:49;;;;;;;13.80;6.10;;;23.10;68.00;;;;;;5185991;28;20054;-52
2021/06/11 09:11:25;;;;;;;9.40;5.80;;;23.10;67.90;;;;;;5187395;28;20054;-52
2021/06/11 09:14:03;;;;;;;10.93;5.80;;;23.10;67.90;;;;;;5179836;28;20049;-54
2021/06/11 09:16:51;;;;;;;13.73;5.95;;;23.10;67.80;;;;;;5160069;28;20053;-53
2021/06/11 09:19:24;;;;;;;10.85;6.50;;;23.10;67.80;;;;;;5178099;28;20057;-52
2021/06/11 09:22:02;;;;;;;9.70;6.30;;;23.10;67.70;;;;;;5180672;28;20085;-55
2021/06/11 09:24:36;;;;;;;11.27;6.55;;;23.10;67.70;;;;;;5176552;28;20189;-51
2021/06/11 09:27:12;;;;;;;9.77;6.10;;;23.10;67.70;;;;;;5173763;28;20116;-53
2021/06/11 09:29:49;;;;;;;13.82;6.03;;;23.20;67.70;;;;;;5179930;28;20783;-54
2021/06/11 09:32:31;;;;;;;10.65;5.95;;;23.20;67.60;;;;;;5164792;28;20042;-52
2021/06/11 09:35:06;;;;;;;11.20;6.65;;;23.20;67.40;;;;;;5177389;28;20064;-49
2021/06/11 09:37:39;;;;;;;10.98;6.20;;;23.30;67.50;;;;;;5180063;28;20510;-50
2021/06/11 09:40:13;;;;;;;9.77;6.72;;;23.30;67.30;;;;;;5182545;28;20068;-50
2021/06/11 09:42:48;;;;;;;13.90;6.32;;;23.30;67.20;;;;;;5183583;28;20060;-53
2021/06/11 09:45:42;;;;;;;7.63;5.93;;;23.40;67.10;;;;;;5178184;28;20053;-52
2021/06/11 09:48:24;;;;;;;8.55;6.22;;;23.40;67.10;;;;;;5181073;28;20058;-52
2021/06/11 09:50:57;;;;;;;9.80;6.32;;;23.40;66.90;;;;;;5178360;28;20046;-55
2021/06/11 09:53:30;;;;;;;7.60;6.25;;;23.40;66.80;;;;;;5167822;28;20033;-48
2021/06/11 09:56:03;;;;;;;8.73;5.47;;;23.40;66.70;;;;;;5187029;28;20509;-50
2021/06/11 09:58:39;;;;;;;8.37;5.97;;;23.50;66.20;;;;;;5201423;28;20057;-50
2021/06/11 10:01:12;;;;;;;14.35;6.07;;;23.50;66.40;;;;;;5186561;28;20060;-53
2021/06/11 10:03:48;;;;;;;10.68;5.55;;;23.50;66.30;;;;;;5185363;28;20565;-51
2021/06/11 10:06:22;;;;;;;9.55;6.68;;;23.50;66.10;;;;;;5175992;28;20418;-53
2021/06/11 10:08:54;;;;;;;;;;;23.50;66.00;;;;;;5183805;28;20045;-50
2021/06/11 10:11:27;;;;;;;7.70;5.80;;;23.50;65.90;;;;;;5186549;28;19929;-48
2021/06/11 10:14:03;;;;;;;9.40;6.97;;;23.50;66.00;;;;;;5189166;28;21181;-52
2021/06/11 10:16:38;;;;;;;8.82;5.38;;;23.50;65.90;;;;;;5183025;28;20041;-55
2021/06/11 10:19:11;;;;;;;6.97;5.65;;;23.60;66.00;;;;;;5184061;28;20054;-53
2021/06/11 10:21:45;;;;;;;6.95;5.65;;;23.60;66.50;;;;;;5185652;28;20068;-50
2021/06/11 10:24:20;;;;;;;6.90;5.90;;;23.60;65.80;;;;;;5184705;28;20045;-55
2021/06/11 10:26:52;;;;;;;6.97;6.22;;;23.60;65.70;;;;;;5196436;28;20058;-51
2021/06/11 10:29:25;;;;;;;7.57;5.72;;;23.70;65.60;;;;;;5187296;28;20518;-46
2021/06/11 10:32:01;;;;;;;9.40;7.15;;;23.60;65.30;;;;;;5175679;28;20049;-53
2021/06/11 10:35:00;;;;;;;6.10;5.50;;;23.70;65.20;;;;;;5177574;28;20530;-56
2021/06/11 10:37:42;;;;;;;9.35;6.28;;;23.70;65.10;;;;;;5180527;28;20060;-51
2021/06/11 10:40:24;;;;;;;12.00;5.38;;;23.70;65.10;;;;;;5185302;28;20048;-52
2021/06/11 10:43:25;;;;;;;6.25;5.50;;;23.70;65.10;;;;;;5144030;28;20057;-56
2021/06/11 10:45:58;;;;;;;6.57;5.88;;;23.60;65.00;;;;;;5176375;28;20061;-54
2021/06/11 10:49:01;;;;;;;7.15;6.18;;;23.70;65.10;;;;;;5180995;28;20060;-50
2021/06/11 10:51:39;;;;;;;6.38;5.35;;;23.70;64.90;;;;;;5178565;28;20045;-51
2021/06/11 10:54:28;;;;;;;6.97;5.63;;;23.70;64.90;;;;;;5169205;28;20052;-49
2021/06/11 10:57:10;;;;;;;7.15;6.05;;;23.70;64.70;;;;;;5181599;28;20129;-49
2021/06/11 10:59:49;;;;;;;8.13;5.15;;;23.80;64.60;;;;;;5179256;28;20184;-50
2021/06/11 11:02:46;;;;;;;9.05;5.60;;;23.80;64.40;;;;;;5175409;28;20064;-50
2021/06/11 11:05:33;;;;;;;9.40;5.97;;;23.80;64.10;;;;;;5179882;28;20053;-57
2021/06/11 11:08:08;;;;;;;8.43;6.00;;;23.80;64.00;;;;;;5180415;28;20060;-50
2021/06/11 11:10:51;;;;;;;6.82;5.55;;;23.80;64.00;;;;;;5175482;28;20738;-55
2021/06/11 11:13:28;;;;;;;6.13;5.53;;;23.80;63.90;;;;;;5177366;28;20046;-53
2021/06/11 11:16:01;;;;;;;10.27;6.10;;;23.80;63.90;;;;;;5180767;28;20042;-51
2021/06/11 11:18:34;;;;;;;6.32;5.50;;;23.80;63.70;;;;;;5181175;28;20057;-56
2021/06/11 11:21:27;;;;;;;7.05;5.78;;;23.80;63.40;;;;;;5186189;28;20134;-52
2021/06/11 11:24:07;;;;;;;6.65;5.95;;;23.80;63.30;;;;;;5171290;28;20057;-56
2021/06/11 11:26:48;;;;;;;8.23;6.20;;;23.80;63.40;;;;;;5178749;28;20060;-51
2021/06/11 11:29:22;;;;;;;11.55;6.55;;;23.80;63.40;;;;;;5177711;28;20057;-51
2021/06/11 11:31:55;;;;;;;11.20;5.88;;;23.80;63.40;;;;;;5177045;28;20053;-54
2021/06/11 11:34:27;;;;;;;16.02;6.78;;;23.80;63.50;;;;;;5174870;28;20136;-54
2021/06/11 11:37:00;;;;;;;12.50;5.87;;;23.80;63.60;;;;;;5166469;28;20528;-53
2021/06/11 11:39:32;;;;;;;10.60;5.68;;;23.80;63.70;;;;;;5170982;28;20697;-49
2021/06/11 11:42:06;;;;;;;8.10;5.93;;;23.80;63.80;;;;;;5172729;28;20050;-51
2021/06/11 11:44:40;;;;;;;9.70;5.68;;;23.80;63.90;;;;;;5172666;28;20053;-54
2021/06/11 11:47:14;;;;;;;9.57;5.65;;;23.80;64.00;;;;;;5171752;28;20054;-53
2021/06/11 11:49:46;;;;;;;;;;;23.90;64.00;;;;;;5179574;28;20052;-50
2021/06/11 11:52:35;;;;;;;15.85;6.32;;;23.80;63.80;;;;;;5173056;28;20412;-52
2021/06/11 11:55:08;;;;;;;8.57;5.90;;;23.90;63.70;;;;;;5178945;28;20064;-56
2021/06/11 11:57:42;;;;;;;;;;;23.90;62.70;;;;;;5177675;28;20054;-52
2021/06/11 12:00:16;;;;;;;6.63;5.93;;;23.90;62.50;;;;;;5174820;28;19925;-53
2021/06/11 12:02:49;;;;;;;12.05;6.80;;;23.90;62.80;;;;;;5170055;28;20054;-51
2021/06/11 12:05:22;;;;;;;13.20;5.85;;;23.90;62.80;;;;;;5177471;28;20061;-50
2021/06/11 12:07:54;;;;;;;10.43;6.10;;;23.90;62.80;;;;;;5166451;28;20157;-49
2021/06/11 12:10:27;;;;;;;12.55;5.90;;;24.00;62.90;;;;;;5174744;28;20065;-50
2021/06/11 12:12:59;;;;;;;9.45;6.70;;;24.00;62.90;;;;;;5184006;28;20057;-51
2021/06/11 12:15:33;;;;;;;;;;;24.00;62.70;;;;;;5173459;28;20049;-49
2021/06/11 12:18:06;;;;;;;9.32;6.10;;;23.90;61.80;;;;;;5179077;28;19921;-51
2021/06/11 12:20:39;;;;;;;12.05;6.22;;;23.90;62.00;;;;;;5182597;28;20064;-57
2021/06/11 12:23:11;;;;;;;7.97;5.67;;;24.00;62.10;;;;;;5169283;28;20421;-55
2021/06/11 12:25:44;;;;;;;7.00;5.70;;;24.00;61.80;;;;;;5171983;28;20096;-56
2021/06/11 12:28:17;;;;;;;7.13;5.63;;;24.00;61.40;;;;;;5171842;28;20060;-52
2021/06/11 12:30:50;;;;;;;7.65;6.43;;;24.00;61.40;;;;;;5176789;28;20060;-53
2021/06/11 12:33:23;;;;;;;8.48;6.18;;;24.00;61.50;;;;;;5179384;28;20064;-54
2021/06/11 12:35:56;;;;;;;9.02;6.03;;;24.00;61.50;;;;;;5169554;28;20088;-50
2021/06/11 12:38:29;;;;;;;8.98;6.60;;;24.00;61.40;;;;;;5178221;28;20049;-54
2021/06/11 12:41:02;;;;;;;10.97;5.97;;;24.10;61.10;;;;;;5174811;28;20065;-55
2021/06/11 12:46:27;;;;;;;9.50;6.00;;;24.10;61.20;;;;;;5151744;28;20408;-59
2021/06/11 12:49:00;;;;;;;10.57;6.60;;;24.20;61.70;;;;;;5135500;28;20549;-51
2021/06/11 12:51:33;;;;;;;16.42;6.82;;;24.30;62.00;;;;;;5137089;28;20050;-58
2021/06/11 12:54:09;;;;;;;12.05;5.72;;;24.30;62.10;;;;;;5132019;28;20111;-58
2021/06/11 12:56:43;;;;;;;17.73;6.25;;;24.30;61.90;;;;;;5111697;28;20450;-57
2021/06/11 12:59:15;;;;;;;8.57;5.70;;;24.40;61.80;;;;;;5144652;28;20176;-58
2021/06/11 13:01:48;;;;;;;11.30;5.88;;;24.40;61.70;;;;;;5119613;28;20708;-59
2021/06/11 13:04:20;;;;;;;11.37;6.27;;;24.50;61.50;;;;;;5128530;28;20057;-58
2021/06/11 13:06:54;;;;;;;7.45;5.65;;;24.60;61.40;;;;;;5139652;28;20868;-57
2021/06/11 13:09:29;;;;;;;;;;;24.70;61.30;;;;;;5126872;28;20038;-55
2021/06/11 13:12:02;;;;;;;8.73;5.30;;;24.70;61.20;;;;;;5137458;28;20995;-60
2021/06/11 13:14:34;;;;;;;16.23;6.13;;;24.80;61.20;;;;;;5145029;28;20041;-59
2021/06/11 13:17:07;;;;;;;10.93;6.10;;;24.80;61.10;;;;;;5140657;28;20045;-56
2021/06/11 13:19:40;;;;;;;9.65;5.32;;;24.90;61.10;;;;;;5159460;28;20507;-57
2021/06/11 13:22:13;;;;;;;8.97;5.53;;;25.00;61.00;;;;;;5148560;28;20065;-57
2021/06/11 13:24:47;;;;;;;13.48;6.30;;;25.10;61.00;;;;;;5145457;28;20063;-58
2021/06/11 13:27:19;;;;;;;14.68;5.85;;;25.10;61.00;;;;;;5146324;28;20393;-56
2021/06/11 13:29:52;;;;;;;8.90;5.90;;;25.20;60.90;;;;;;5153145;28;20042;-58